Time;durP1;ratioP1;P1;durP2;ratioP2;P2;SDS_P1;SDS_P2;PMS_P1;PMS_P2;Temp;Humidity;BMP_temperature;BMP_pressure;BME280_temperature;BME280_humidity;BME280_pressure;Samples;Min_cycle;Max_cycle;Signal;HPM_P1;HPM_P2
2021/04/27 00:02:11;;;;;;;9.30;2.63;;;1.50;72.80;;;;;;5035313;28;20183;-84
2021/04/27 00:04:37;;;;;;;5.67;2.70;;;1.50;73.50;;;;;;5066726;22;20227;-90
2021/04/27 00:07:02;;;;;;;4.63;2.97;;;1.40;75.50;;;;;;5055116;28;20180;-89
2021/04/27 00:09:28;;;;;;;6.03;2.47;;;1.40;76.20;;;;;;5054697;28;20541;-90
2021/04/27 00:11:54;;;;;;;8.67;2.70;;;1.30;76.40;;;;;;5055213;28;20262;-90
2021/04/27 00:14:20;;;;;;;8.90;2.60;;;1.30;76.30;;;;;;5056127;28;20183;-89
2021/04/27 00:16:45;;;;;;;3.73;2.50;;;1.30;76.40;;;;;;5054902;28;20176;-90
2021/04/27 00:19:11;;;;;;;18.10;3.53;;;1.40;76.10;;;;;;5056087;28;20168;-90
2021/04/27 00:21:38;;;;;;;13.87;3.00;;;1.40;76.00;;;;;;5055991;28;20207;-90
2021/04/27 00:24:05;;;;;;;10.63;3.93;;;1.50;76.00;;;;;;5054905;28;20200;-90
2021/04/27 00:26:30;;;;;;;10.67;3.30;;;1.50;76.30;;;;;;5055574;28;20171;-90
2021/04/27 00:28:56;;;;;;;10.27;3.03;;;1.50;76.40;;;;;;5054733;28;20556;-90
2021/04/27 00:31:22;;;;;;;6.93;2.83;;;1.40;78.00;;;;;;5054812;28;20184;-90
2021/04/27 00:33:47;;;;;;;10.23;3.40;;;1.40;78.60;;;;;;5055839;28;20195;-90
2021/04/27 00:36:13;;;;;;;7.07;2.53;;;1.40;78.80;;;;;;5054520;28;20200;-90
2021/04/27 00:38:39;;;;;;;8.13;3.10;;;1.30;79.00;;;;;;5054486;28;20182;-90
2021/04/27 00:41:05;;;;;;;7.67;2.50;;;1.30;79.00;;;;;;5054672;28;20248;-90
2021/04/27 00:43:30;;;;;;;5.80;3.00;;;1.20;78.90;;;;;;5055894;28;20178;-90
2021/04/27 00:45:56;;;;;;;7.23;2.90;;;1.20;78.90;;;;;;5055786;28;20194;-90
2021/04/27 00:48:22;;;;;;;7.03;3.17;;;1.20;78.90;;;;;;5054606;28;20168;-90
2021/04/27 00:50:48;;;;;;;11.40;2.47;;;1.20;78.50;;;;;;5055374;28;20711;-90
2021/04/27 00:53:13;;;;;;;5.83;2.73;;;1.20;78.70;;;;;;5054115;28;20294;-90
2021/04/27 00:55:39;;;;;;;9.47;2.63;;;1.10;78.60;;;;;;5053910;28;20195;-89
2021/04/27 00:58:05;;;;;;;9.63;2.70;;;1.10;78.50;;;;;;5055409;28;20180;-90
2021/04/27 01:00:35;;;;;;;12.07;5.57;;;1.20;78.40;;;;;;5053874;28;20198;-89
2021/04/27 01:03:01;;;;;;;4.67;2.57;;;1.20;78.30;;;;;;5055470;28;20175;-89
2021/04/27 01:05:30;;;;;;;5.37;2.83;;;1.30;78.00;;;;;;5054991;28;20671;-89
2021/04/27 01:08:10;;;;;;;14.17;3.17;;;1.30;78.00;;;;;;5054986;28;20179;-89
2021/04/27 01:10:44;;;;;;;7.33;2.70;;;1.30;77.20;;;;;;5053972;28;20187;-90
2021/04/27 01:13:37;;;;;;;10.97;3.00;;;1.30;76.50;;;;;;5053735;28;20313;-89
2021/04/27 01:16:06;;;;;;;11.17;3.40;;;1.30;78.90;;;;;;5053749;28;20196;-90
2021/04/27 01:18:32;;;;;;;12.90;3.33;;;1.20;80.80;;;;;;5053996;28;20183;-90
2021/04/27 01:21:00;;;;;;;7.03;2.47;;;1.20;80.30;;;;;;5053914;28;20199;-90
2021/04/27 01:23:44;;;;;;;9.00;4.03;;;1.30;79.70;;;;;;5053916;28;20642;-89
2021/04/27 01:26:18;;;;;;;14.07;2.73;;;1.20;79.70;;;;;;5054799;28;20184;-89
2021/04/27 01:28:45;;;;;;;6.30;3.00;;;1.20;79.50;;;;;;5054656;28;20195;-89
2021/04/27 01:31:12;;;;;;;7.07;2.50;;;1.30;79.20;;;;;;5053851;28;20188;-89
2021/04/27 01:33:39;;;;;;;9.17;2.93;;;1.30;79.00;;;;;;5053979;28;20220;-89
2021/04/27 01:36:06;;;;;;;8.60;2.67;;;1.30;78.10;;;;;;5052780;28;20257;-89
2021/04/27 01:38:32;;;;;;;6.10;2.67;;;1.30;77.90;;;;;;5053429;28;20266;-89
2021/04/27 01:40:58;;;;;;;6.83;2.73;;;1.30;76.80;;;;;;5054124;28;20345;-89
2021/04/27 01:43:25;;;;;;;5.03;2.47;;;1.30;76.10;;;;;;5054544;28;20246;-89
2021/04/27 01:45:58;;;;;;;8.77;2.70;;;1.30;75.90;;;;;;5053163;28;20203;-89
2021/04/27 01:48:24;;;;;;;8.13;2.83;;;1.30;76.40;;;;;;5054623;28;20153;-90
2021/04/27 01:50:51;;;;;;;13.43;3.57;;;1.30;77.20;;;;;;5053206;28;20267;-89
2021/04/27 01:53:17;;;;;;;5.93;2.60;;;1.20;78.20;;;;;;5054349;28;20176;-90
2021/04/27 01:55:43;;;;;;;15.40;4.43;;;1.10;79.20;;;;;;5054264;28;20227;-89
2021/04/27 01:58:09;;;;;;;16.00;3.70;;;1.00;79.80;;;;;;5052978;28;20177;-89
2021/04/27 02:00:36;;;;;;;5.47;2.80;;;1.00;80.00;;;;;;5052803;28;20231;-89
2021/04/27 02:03:01;;;;;;;11.40;2.70;;;0.90;80.10;;;;;;5052751;28;20172;-89
2021/04/27 02:05:27;;;;;;;8.13;3.07;;;0.90;80.00;;;;;;5053798;28;20203;-89
2021/04/27 02:07:53;;;;;;;4.80;3.13;;;0.80;80.20;;;;;;5052750;28;20175;-89
2021/04/27 02:10:20;;;;;;;5.57;2.83;;;0.80;80.60;;;;;;5052712;28;20199;-89
2021/04/27 02:12:51;;;;;;;7.93;3.37;;;0.70;80.40;;;;;;5053866;28;20190;-89
2021/04/27 02:15:19;;;;;;;4.43;3.30;;;0.50;80.80;;;;;;5052584;28;20248;-89
2021/04/27 02:18:20;;;;;;;11.53;3.10;;;0.40;80.70;;;;;;5053293;28;20811;-89
2021/04/27 02:20:46;;;;;;;3.30;3.00;;;0.30;80.80;;;;;;5050212;28;20588;-89
2021/04/27 02:23:13;;;;;;;3.93;2.80;;;0.20;81.20;;;;;;5052536;28;20199;-89
2021/04/27 02:25:40;;;;;;;10.17;3.40;;;0.20;81.70;;;;;;5052465;28;20204;-89
2021/04/27 02:28:07;;;;;;;7.90;3.03;;;0.20;81.50;;;;;;5053692;28;20171;-89
2021/04/27 02:30:33;;;;;;;4.83;3.03;;;0.30;81.60;;;;;;5052331;28;20174;-89
2021/04/27 02:32:59;;;;;;;4.60;2.63;;;0.30;81.60;;;;;;5052228;28;20652;-89
2021/04/27 02:35:24;;;;;;;7.80;3.10;;;0.30;81.70;;;;;;5052051;28;20378;-89
2021/04/27 02:37:52;;;;;;;16.80;3.93;;;0.30;81.70;;;;;;5053705;28;20625;-89
2021/04/27 02:40:24;;;;;;;14.20;3.07;;;0.30;81.90;;;;;;5053406;28;20281;-89
2021/04/27 02:42:53;;;;;;;7.47;3.43;;;0.40;82.10;;;;;;5053703;28;20174;-89
2021/04/27 02:45:19;;;;;;;10.27;3.10;;;0.40;82.60;;;;;;5052875;28;20617;-89
2021/04/27 02:47:45;;;;;;;4.47;3.10;;;0.50;82.60;;;;;;5052849;28;20577;-89
2021/04/27 02:50:12;;;;;;;9.00;3.10;;;0.40;82.00;;;;;;5052570;28;20183;-89
2021/04/27 02:52:40;;;;;;;14.47;3.47;;;0.40;81.80;;;;;;5052114;28;20550;-89
2021/04/27 02:55:06;;;;;;;13.70;3.37;;;0.40;81.80;;;;;;5051953;28;20209;-89
2021/04/27 02:57:32;;;;;;;14.47;3.00;;;0.30;81.80;;;;;;5052060;28;20189;-89
2021/04/27 02:59:58;;;;;;;6.87;3.20;;;0.40;82.10;;;;;;5053115;28;20274;-89
2021/04/27 03:02:23;;;;;;;10.80;3.33;;;0.40;82.40;;;;;;5052724;28;20315;-89
2021/04/27 03:04:49;;;;;;;6.30;3.27;;;0.40;82.50;;;;;;5051777;28;20219;-89
2021/04/27 03:07:14;;;;;;;6.40;3.40;;;0.40;82.50;;;;;;5051911;28;20633;-89
2021/04/27 03:09:40;;;;;;;10.17;3.23;;;0.40;82.50;;;;;;5052982;28;20281;-89
2021/04/27 03:12:06;;;;;;;26.07;4.57;;;0.30;82.30;;;;;;5051804;28;20670;-89
2021/04/27 03:14:31;;;;;;;18.77;3.83;;;0.40;82.20;;;;;;5052923;28;20267;-89
2021/04/27 03:16:57;;;;;;;5.87;3.00;;;0.30;82.00;;;;;;5053112;28;20273;-89
2021/04/27 03:19:23;;;;;;;10.80;3.17;;;0.40;81.60;;;;;;5052914;28;20184;-89
2021/04/27 03:21:48;;;;;;;11.23;3.80;;;0.30;81.10;;;;;;5053187;28;20178;-89
2021/04/27 03:24:15;;;;;;;7.03;2.70;;;0.30;81.50;;;;;;5051861;28;20230;-89
2021/04/27 03:26:41;;;;;;;10.93;3.17;;;0.30;81.60;;;;;;5051891;28;20205;-89
2021/04/27 03:29:06;;;;;;;7.43;3.00;;;0.20;81.80;;;;;;5052906;28;20700;-89
2021/04/27 03:31:32;;;;;;;6.63;3.33;;;0.30;82.10;;;;;;5053426;28;20644;-89
2021/04/27 03:33:58;;;;;;;5.03;3.47;;;0.20;82.40;;;;;;5052784;28;20170;-89
2021/04/27 03:36:24;;;;;;;17.17;3.30;;;0.20;82.90;;;;;;5051846;28;20179;-89
2021/04/27 03:38:49;;;;;;;7.20;3.27;;;0.20;82.70;;;;;;5052811;28;20175;-89
2021/04/27 03:41:15;;;;;;;11.17;3.30;;;0.30;82.80;;;;;;5051425;28;20202;-89
2021/04/27 03:43:41;;;;;;;6.87;3.50;;;0.20;82.90;;;;;;5052828;28;20179;-89
2021/04/27 03:46:06;;;;;;;6.77;3.40;;;0.20;82.80;;;;;;5052854;28;20197;-89
2021/04/27 03:48:32;;;;;;;13.00;3.47;;;0.20;82.60;;;;;;5051500;28;20171;-89
2021/04/27 03:50:58;;;;;;;14.07;3.80;;;0.20;83.00;;;;;;5051601;28;20175;-89
2021/04/27 03:53:24;;;;;;;7.40;3.50;;;0.20;82.90;;;;;;5052298;28;20259;-89
2021/04/27 03:55:50;;;;;;;5.27;2.77;;;0.20;83.50;;;;;;5051513;28;20229;-89
2021/04/27 03:58:16;;;;;;;5.67;3.50;;;0.20;83.10;;;;;;5053277;28;20176;-89
2021/04/27 04:00:41;;;;;;;17.30;3.53;;;0.20;83.00;;;;;;5056545;28;20293;-89
2021/04/27 04:03:07;;;;;;;7.17;3.17;;;0.20;82.90;;;;;;5055128;28;20206;-89
2021/04/27 04:05:33;;;;;;;5.87;3.50;;;0.30;83.10;;;;;;5054996;28;20301;-89
2021/04/27 04:07:58;;;;;;;5.57;2.73;;;0.20;82.80;;;;;;5055059;28;20178;-89
2021/04/27 04:10:24;;;;;;;14.13;2.83;;;0.10;82.70;;;;;;5055097;28;20178;-89
2021/04/27 04:12:50;;;;;;;11.13;3.30;;;0.10;82.70;;;;;;5056141;28;20647;-89
2021/04/27 04:15:18;;;;;;;5.30;3.80;;;0.20;82.20;;;;;;5054838;28;20205;-89
2021/04/27 04:17:44;;;;;;;5.00;3.07;;;0.30;82.00;;;;;;5054801;28;20649;-89
2021/04/27 04:20:22;;;;;;;4.17;2.77;;;0.30;81.50;;;;;;5054761;28;20195;-89
2021/04/27 04:22:49;;;;;;;4.63;2.90;;;0.40;81.20;;;;;;5056292;28;20157;-89
2021/04/27 04:25:16;;;;;;;7.87;3.53;;;0.40;80.90;;;;;;5055901;28;20214;-89
2021/04/27 04:27:42;;;;;;;9.53;3.00;;;0.50;81.10;;;;;;5054846;28;20204;-89
2021/04/27 04:30:10;;;;;;;9.00;3.30;;;0.50;81.20;;;;;;5055882;28;20231;-89
2021/04/27 04:32:36;;;;;;;11.27;3.60;;;0.60;81.00;;;;;;5055815;28;20175;-89
2021/04/27 04:35:02;;;;;;;10.57;3.83;;;0.60;81.20;;;;;;5055908;28;20195;-89
2021/04/27 04:37:27;;;;;;;12.23;3.00;;;0.60;80.90;;;;;;5055708;28;20168;-89
2021/04/27 04:39:53;;;;;;;7.60;3.40;;;0.50;81.00;;;;;;5054470;28;20208;-89
2021/04/27 04:42:19;;;;;;;11.17;3.43;;;0.50;81.40;;;;;;5054420;28;20176;-89
2021/04/27 04:44:45;;;;;;;13.20;3.50;;;0.50;81.10;;;;;;5054132;28;20208;-89
2021/04/27 04:47:10;;;;;;;10.37;3.30;;;0.50;81.30;;;;;;5055472;28;20179;-89
2021/04/27 04:49:36;;;;;;;7.37;3.67;;;0.50;80.80;;;;;;5054166;28;20170;-89
2021/04/27 04:52:01;;;;;;;10.50;3.37;;;0.50;81.30;;;;;;5055721;28;20170;-89
2021/04/27 04:54:27;;;;;;;5.00;3.43;;;0.60;81.60;;;;;;5055350;28;20186;-89
2021/04/27 04:56:53;;;;;;;9.97;3.50;;;0.60;81.60;;;;;;5053981;28;20174;-89
2021/04/27 04:59:18;;;;;;;10.73;3.30;;;0.70;82.40;;;;;;5054942;28;20171;-89
2021/04/27 05:01:44;;;;;;;8.70;3.20;;;0.80;81.90;;;;;;5053912;28;20335;-89
2021/04/27 05:04:09;;;;;;;9.03;3.77;;;0.80;81.70;;;;;;5054074;28;20240;-88
2021/04/27 05:06:38;;;;;;;10.10;3.37;;;0.80;82.30;;;;;;5053936;28;20178;-89
2021/04/27 05:09:06;;;;;;;3.70;2.97;;;0.90;82.30;;;;;;5054236;28;20179;-89
2021/04/27 05:11:32;;;;;;;5.27;3.17;;;1.00;81.90;;;;;;5052982;28;20186;-89
2021/04/27 05:13:58;;;;;;;5.77;3.17;;;1.10;81.60;;;;;;5054037;28;20183;-89
2021/04/27 05:16:24;;;;;;;13.80;3.53;;;1.20;81.30;;;;;;5055117;28;20174;-89
2021/04/27 05:18:50;;;;;;;7.67;3.50;;;1.30;81.30;;;;;;5053758;28;20713;-89
2021/04/27 05:21:16;;;;;;;8.90;3.63;;;1.30;81.10;;;;;;5054831;28;20563;-89
2021/04/27 05:23:43;;;;;;;8.60;2.80;;;1.30;81.20;;;;;;5055057;28;20172;-89
2021/04/27 05:26:09;;;;;;;7.30;3.37;;;1.40;81.40;;;;;;5053938;28;20195;-89
2021/04/27 05:28:34;;;;;;;4.63;2.87;;;1.50;80.80;;;;;;5054862;28;20660;-89
2021/04/27 05:31:00;;;;;;;6.00;3.60;;;1.60;80.70;;;;;;5055027;28;20193;-89
2021/04/27 05:33:26;;;;;;;9.63;3.33;;;1.70;80.60;;;;;;5053568;28;20183;-89
2021/04/27 05:35:51;;;;;;;13.73;3.50;;;1.80;80.20;;;;;;5054579;28;20241;-89
2021/04/27 05:38:17;;;;;;;7.80;3.73;;;1.80;80.20;;;;;;5054730;28;20228;-89
2021/04/27 05:40:43;;;;;;;4.83;3.90;;;2.00;80.20;;;;;;5053317;28;20191;-89
2021/04/27 05:43:08;;;;;;;7.50;3.47;;;2.10;80.40;;;;;;5054611;28;20172;-89
2021/04/27 05:45:34;;;;;;;8.97;3.50;;;2.10;80.20;;;;;;5054527;28;20192;-89
2021/04/27 05:48:00;;;;;;;5.47;3.57;;;2.30;79.80;;;;;;5054817;28;20166;-89
2021/04/27 05:50:26;;;;;;;13.83;4.00;;;2.30;79.40;;;;;;5054466;28;20649;-89
2021/04/27 05:52:53;;;;;;;6.10;3.50;;;2.40;79.30;;;;;;5053222;28;20171;-90
2021/04/27 05:55:19;;;;;;;7.43;3.90;;;2.50;79.10;;;;;;5054190;28;20222;-90
2021/04/27 05:57:45;;;;;;;4.30;3.23;;;2.70;78.90;;;;;;5053072;28;20577;-89
2021/04/27 06:00:11;;;;;;;5.37;3.33;;;2.80;78.70;;;;;;5054504;28;20202;-89
2021/04/27 06:02:37;;;;;;;13.73;5.13;;;2.90;78.50;;;;;;5052873;28;20168;-89
2021/04/27 06:05:03;;;;;;;5.97;3.73;;;3.00;78.50;;;;;;5153137;22;20602;-85
2021/04/27 06:07:29;;;;;;;27.47;4.27;;;3.10;78.30;;;;;;5052462;28;20179;-85
2021/04/27 06:09:54;;;;;;;6.10;3.17;;;3.30;78.00;;;;;;5053834;28;20176;-85
2021/04/27 06:12:20;;;;;;;6.77;3.10;;;3.50;75.70;;;;;;5052457;28;20181;-85
2021/04/27 06:14:45;;;;;;;4.13;3.00;;;3.70;74.20;;;;;;5053671;28;20222;-85
2021/04/27 06:17:11;;;;;;;5.43;3.13;;;3.90;73.10;;;;;;5053900;28;20583;-87
2021/04/27 06:19:37;;;;;;;19.10;4.13;;;4.10;73.10;;;;;;5052373;28;20174;-86
2021/04/27 06:22:02;;;;;;;7.60;3.00;;;4.20;72.70;;;;;;5053624;28;20549;-85
2021/04/27 06:24:28;;;;;;;3.80;3.13;;;4.30;72.80;;;;;;5052129;28;20217;-85
2021/04/27 06:26:54;;;;;;;12.20;2.87;;;4.40;71.80;;;;;;5052305;28;20260;-85
2021/04/27 06:29:19;;;;;;;5.97;3.27;;;4.60;71.70;;;;;;5052554;28;20304;-86
2021/04/27 06:31:45;;;;;;;14.63;3.30;;;4.80;71.80;;;;;;5053448;28;20261;-84
2021/04/27 06:34:11;;;;;;;9.43;3.30;;;4.90;70.90;;;;;;5053364;28;20261;-86
2021/04/27 06:36:36;;;;;;;6.83;3.00;;;4.90;69.50;;;;;;5053142;28;20194;-85
2021/04/27 06:39:04;;;;;;;5.57;2.97;;;5.20;66.90;;;;;;5051949;28;20203;-84
2021/04/27 06:41:32;;;;;;;6.77;3.57;;;5.10;66.90;;;;;;5053058;28;20207;-85
2021/04/27 06:43:59;;;;;;;9.47;2.97;;;5.20;66.60;;;;;;5053410;28;20179;-89
2021/04/27 06:46:24;;;;;;;5.20;2.70;;;5.30;66.60;;;;;;5053220;28;20192;-89
2021/04/27 06:48:50;;;;;;;4.37;2.73;;;5.80;66.30;;;;;;5053147;28;20179;-88
2021/04/27 06:51:17;;;;;;;5.20;2.73;;;5.90;65.10;;;;;;5053184;28;20578;-88
2021/04/27 06:53:44;;;;;;;9.50;2.80;;;5.90;64.60;;;;;;5053226;28;20187;-87
2021/04/27 06:56:10;;;;;;;8.90;3.13;;;6.20;63.30;;;;;;5051952;28;20192;-88
2021/04/27 06:58:36;;;;;;;5.93;2.83;;;6.30;63.80;;;;;;5053353;28;20260;-88
2021/04/27 07:01:01;;;;;;;5.30;2.43;;;6.60;62.10;;;;;;5051980;28;20204;-88
2021/04/27 07:03:27;;;;;;;5.63;2.10;;;6.80;60.20;;;;;;5053137;28;20184;-87
2021/04/27 07:05:52;;;;;;;11.20;2.17;;;6.80;60.20;;;;;;5051691;28;20208;-88
2021/04/27 07:08:18;;;;;;;5.27;2.33;;;7.00;58.90;;;;;;5053082;28;20178;-88
2021/04/27 07:10:44;;;;;;;7.60;2.30;;;7.20;59.10;;;;;;5053138;28;20170;-88
2021/04/27 07:13:09;;;;;;;3.37;2.30;;;7.30;56.30;;;;;;5053045;28;20177;-89
2021/04/27 07:15:35;;;;;;;9.83;2.40;;;7.30;54.90;;;;;;5051731;28;20203;-88
2021/04/27 07:18:01;;;;;;;3.73;2.00;;;7.20;55.80;;;;;;5052999;28;20189;-88
2021/04/27 07:20:26;;;;;;;3.43;2.07;;;7.30;56.30;;;;;;5052867;28;20203;-88
2021/04/27 07:22:52;;;;;;;5.10;2.17;;;7.70;56.40;;;;;;5051632;28;20639;-88
2021/04/27 07:25:18;;;;;;;4.33;2.07;;;7.80;53.80;;;;;;5053085;28;20202;-88
2021/04/27 07:27:44;;;;;;;2.73;1.80;;;7.70;54.00;;;;;;5051892;28;20201;-88
2021/04/27 07:30:12;;;;;;;6.53;2.23;;;7.50;54.90;;;;;;5051700;28;20551;-87
2021/04/27 07:32:38;;;;;;;3.73;1.80;;;7.30;54.60;;;;;;5052683;28;20178;-88
2021/04/27 07:35:06;;;;;;;6.20;2.17;;;7.80;54.40;;;;;;5054446;28;20679;-85
2021/04/27 07:37:32;;;;;;;4.17;2.20;;;8.20;53.10;;;;;;5056554;28;20175;-85
2021/04/27 07:39:58;;;;;;;4.80;1.90;;;8.40;51.30;;;;;;5055733;28;20226;-86
2021/04/27 07:42:24;;;;;;;2.63;1.60;;;8.20;52.90;;;;;;5055278;28;20640;-83
2021/04/27 07:44:50;;;;;;;4.40;1.90;;;7.90;54.20;;;;;;5055086;28;20551;-85
2021/04/27 07:47:15;;;;;;;6.87;2.10;;;7.70;53.90;;;;;;5055464;28;20175;-89
2021/04/27 07:49:41;;;;;;;2.20;1.73;;;7.70;53.20;;;;;;5056542;28;20607;-87
2021/04/27 07:52:07;;;;;;;3.37;1.70;;;7.90;51.60;;;;;;5057343;28;20250;-86
2021/04/27 07:54:33;;;;;;;5.63;1.90;;;8.10;49.70;;;;;;5056972;28;20164;-84
2021/04/27 07:56:58;;;;;;;2.77;1.90;;;8.20;49.90;;;;;;5056378;28;20191;-86
2021/04/27 07:59:24;;;;;;;3.43;1.73;;;8.20;51.50;;;;;;5054943;28;20265;-86
2021/04/27 08:01:50;;;;;;;3.07;1.90;;;8.00;52.00;;;;;;5054815;28;20227;-86
2021/04/27 08:04:16;;;;;;;3.57;1.80;;;8.00;53.20;;;;;;5056140;28;20179;-85
2021/04/27 08:06:42;;;;;;;3.43;1.67;;;8.10;49.70;;;;;;5054739;28;20191;-86
2021/04/27 08:09:08;;;;;;;2.00;1.60;;;8.10;50.20;;;;;;5054921;28;20277;-86
2021/04/27 08:11:36;;;;;;;5.77;2.00;;;8.00;50.70;;;;;;5056253;28;20229;-86
2021/04/27 08:14:03;;;;;;;2.70;1.47;;;8.10;49.40;;;;;;5056012;28;20187;-86
2021/04/27 08:16:28;;;;;;;9.70;1.83;;;8.30;49.90;;;;;;5054948;28;20209;-88
2021/04/27 08:18:54;;;;;;;3.37;1.83;;;8.60;49.20;;;;;;5054774;28;20344;-87
2021/04/27 08:21:20;;;;;;;3.37;1.60;;;8.70;47.50;;;;;;5054647;28;20294;-88
2021/04/27 08:23:46;;;;;;;4.90;1.60;;;9.00;48.50;;;;;;5056183;28;20537;-88
2021/04/27 08:26:13;;;;;;;3.43;1.70;;;9.30;47.00;;;;;;5054611;28;20192;-88
2021/04/27 08:28:40;;;;;;;2.40;1.57;;;9.40;44.20;;;;;;5054640;28;20598;-87
2021/04/27 08:31:06;;;;;;;1.83;1.50;;;9.30;47.60;;;;;;5055686;28;20176;-87
2021/04/27 08:33:32;;;;;;;2.33;1.40;;;9.60;46.10;;;;;;5054478;28;20180;-86
2021/04/27 08:35:58;;;;;;;7.67;1.70;;;9.50;44.70;;;;;;5055469;28;20556;-86
2021/04/27 08:38:23;;;;;;;3.43;1.63;;;9.30;45.30;;;;;;5055758;28;20179;-87
2021/04/27 08:40:49;;;;;;;2.43;1.57;;;9.30;45.40;;;;;;5055625;28;20196;-86
2021/04/27 08:43:16;;;;;;;4.93;1.47;;;9.20;46.30;;;;;;5054171;28;20656;-86
2021/04/27 08:45:44;;;;;;;3.83;1.80;;;9.30;45.10;;;;;;5054151;28;20204;-85
2021/04/27 08:48:11;;;;;;;3.63;1.50;;;9.40;47.50;;;;;;5055741;28;20269;-85
2021/04/27 08:50:37;;;;;;;7.63;1.80;;;9.50;45.70;;;;;;5055483;28;20179;-85
2021/04/27 08:53:03;;;;;;;2.43;1.47;;;9.20;44.10;;;;;;5053964;28;20180;-85
2021/04/27 08:55:29;;;;;;;2.33;1.40;;;9.30;44.50;;;;;;5055211;28;20290;-86
2021/04/27 08:57:55;;;;;;;4.80;1.60;;;9.30;45.00;;;;;;5055158;28;20545;-86
2021/04/27 09:00:22;;;;;;;3.80;1.90;;;9.30;46.10;;;;;;5055011;28;20283;-85
2021/04/27 09:02:55;;;;;;;3.17;1.83;;;9.50;45.00;;;;;;5055133;28;20176;-88
2021/04/27 09:05:24;;;;;;;1.73;1.40;;;9.70;43.10;;;;;;5053571;28;20311;-88
2021/04/27 09:07:52;;;;;;;4.07;1.70;;;10.00;42.40;;;;;;5055264;28;20177;-86
2021/04/27 09:10:21;;;;;;;2.87;1.70;;;9.80;45.80;;;;;;5054621;28;20181;-87
2021/04/27 09:12:56;;;;;;;2.17;1.97;;;9.80;42.80;;;;;;5054123;28;20626;-87
2021/04/27 09:15:35;;;;;;;1.93;1.40;;;10.00;46.40;;;;;;5053571;28;20200;-87
2021/04/27 09:18:24;;;;;;;1.83;1.47;;;10.30;40.60;;;;;;5053687;28;20180;-86
2021/04/27 09:20:52;;;;;;;2.00;1.40;;;10.00;44.90;;;;;;5053540;28;20219;-87
2021/04/27 09:23:18;;;;;;;3.47;1.43;;;10.10;41.50;;;;;;5053450;28;20184;-86
2021/04/27 09:26:13;;;;;;;2.30;1.60;;;10.20;41.60;;;;;;5054951;28;20192;-87
2021/04/27 09:28:45;;;;;;;2.47;1.87;;;10.50;41.60;;;;;;5054724;28;20172;-87
2021/04/27 09:31:29;;;;;;;1.97;1.60;;;10.50;39.80;;;;;;5053470;28;20263;-87
2021/04/27 09:34:31;;;;;;;6.07;1.80;;;10.40;41.40;;;;;;5053306;28;20641;-87
2021/04/27 09:37:02;;;;;;;3.30;1.63;;;10.80;39.50;;;;;;5054433;28;20281;-87
2021/04/27 09:39:34;;;;;;;1.40;1.30;;;10.90;38.60;;;;;;5053287;28;20212;-87
2021/04/27 09:42:06;;;;;;;5.83;1.90;;;11.00;39.80;;;;;;5054419;28;20191;-87
2021/04/27 09:44:40;;;;;;;2.20;1.63;;;10.90;38.60;;;;;;5054163;28;20172;-87
2021/04/27 09:47:12;;;;;;;3.13;1.93;;;10.80;42.30;;;;;;5053192;28;20163;-87
2021/04/27 09:49:38;;;;;;;2.53;1.90;;;11.00;39.60;;;;;;5052828;28;20251;-87
2021/04/27 09:52:09;;;;;;;4.20;2.00;;;11.00;40.40;;;;;;5052950;28;20176;-87
2021/04/27 09:54:57;;;;;;;1.60;1.30;;;11.00;38.10;;;;;;5054112;28;20664;-86
2021/04/27 09:57:33;;;;;;;4.97;2.03;;;10.60;38.80;;;;;;5052540;28;20167;-87
2021/04/27 10:00:38;;;;;;;2.53;1.53;;;11.20;38.70;;;;;;5053556;28;20199;-85
2021/04/27 10:03:10;;;;;;;1.60;1.50;;;11.10;37.40;;;;;;5052837;28;20182;-86
2021/04/27 10:05:37;;;;;;;3.33;1.57;;;11.20;38.30;;;;;;5052627;28;20257;-85
2021/04/27 10:08:04;;;;;;;3.00;1.60;;;11.20;37.80;;;;;;5052507;28;20183;-84
2021/04/27 10:10:32;;;;;;;2.50;1.47;;;11.40;39.30;;;;;;5053721;28;20218;-88
2021/04/27 10:13:00;;;;;;;7.90;1.60;;;11.70;37.00;;;;;;5052507;28;20184;-88
2021/04/27 10:15:27;;;;;;;5.13;1.80;;;11.70;36.80;;;;;;5054388;28;20271;-90
2021/04/27 10:17:53;;;;;;;3.00;1.63;;;11.80;37.40;;;;;;5052777;28;20176;-90
2021/04/27 10:20:19;;;;;;;2.60;1.67;;;11.70;37.20;;;;;;5054154;28;20200;-90
2021/04/27 10:22:47;;;;;;;2.33;1.40;;;11.60;36.90;;;;;;5052762;28;20176;-91
2021/04/27 10:25:19;;;;;;;1.83;1.07;;;11.80;36.50;;;;;;5052641;28;20282;-90
2021/04/27 10:27:44;;;;;;;1.57;1.20;;;11.90;33.90;;;;;;5052699;28;20164;-90
2021/04/27 10:30:16;;;;;;;3.67;1.20;;;11.80;32.30;;;;;;5053622;28;20168;-90
2021/04/27 10:32:42;;;;;;;4.07;1.60;;;12.00;34.50;;;;;;5052946;28;20641;-91
2021/04/27 10:35:12;;;;;;;1.80;1.10;;;11.50;35.80;;;;;;5052388;28;20196;-89
2021/04/27 10:37:55;;;;;;;2.80;1.43;;;11.20;37.00;;;;;;5053731;28;20168;-89
2021/04/27 10:40:47;;;;;;;2.17;1.33;;;11.30;33.70;;;;;;5052400;28;20198;-91
2021/04/27 10:43:28;;;;;;;1.40;1.30;;;11.50;37.50;;;;;;5050926;28;20184;-90
2021/04/27 10:46:30;;;;;;;2.13;1.47;;;12.00;36.70;;;;;;5052234;28;20192;-91
2021/04/27 10:49:16;;;;;;;4.23;1.77;;;12.10;33.50;;;;;;5051936;28;20171;-90
2021/04/27 10:51:42;;;;;;;2.17;1.57;;;12.00;33.50;;;;;;5052245;28;20165;-90
2021/04/27 10:54:13;;;;;;;2.80;1.47;;;12.40;36.10;;;;;;5052589;28;20179;-90
2021/04/27 10:56:48;;;;;;;6.40;1.43;;;12.50;35.20;;;;;;5052129;28;20196;-90
2021/04/27 10:59:40;;;;;;;3.00;1.60;;;12.40;35.40;;;;;;5052324;28;20171;-89
2021/04/27 11:02:17;;;;;;;2.17;1.50;;;12.50;34.10;;;;;;5037306;28;20192;-90
2021/04/27 11:04:44;;;;;;;4.27;1.80;;;12.40;34.80;;;;;;5051832;28;20234;-90
2021/04/27 11:07:22;;;;;;;3.10;1.63;;;12.60;35.60;;;;;;5052016;28;20242;-90
2021/04/27 11:10:04;;;;;;;2.80;1.57;;;12.50;35.80;;;;;;5051401;28;20298;-91
2021/04/27 11:12:30;;;;;;;1.60;1.40;;;12.40;35.30;;;;;;5052086;28;20179;-90
2021/04/27 11:15:01;;;;;;;1.30;1.17;;;12.30;35.20;;;;;;5053478;28;20270;-90
2021/04/27 11:17:29;;;;;;;2.07;1.40;;;12.00;33.60;;;;;;5052101;28;20168;-90
2021/04/27 11:19:55;;;;;;;2.33;1.33;;;11.80;37.60;;;;;;5053722;28;20581;-89
2021/04/27 11:22:30;;;;;;;2.53;1.50;;;11.70;35.20;;;;;;5052123;28;20172;-91
2021/04/27 11:24:56;;;;;;;1.97;1.40;;;11.90;35.50;;;;;;5052331;28;20195;-90
2021/04/27 11:27:33;;;;;;;1.77;1.40;;;11.80;36.50;;;;;;5052284;28;20293;-91
2021/04/27 11:30:10;;;;;;;2.37;1.60;;;11.90;34.40;;;;;;5053060;28;20217;-91
2021/04/27 11:32:44;;;;;;;2.03;1.40;;;12.00;34.10;;;;;;5052367;28;20176;-90
2021/04/27 11:35:16;;;;;;;3.13;1.40;;;12.10;35.60;;;;;;5052079;28;20196;-91
2021/04/27 11:37:51;;;;;;;3.20;1.60;;;12.00;34.00;;;;;;5051783;28;20654;-90
2021/04/27 11:40:36;;;;;;;2.77;1.17;;;12.30;33.10;;;;;;5051879;28;20195;-90
2021/04/27 11:43:01;;;;;;;1.67;1.40;;;12.20;34.90;;;;;;5051874;28;20230;-91
2021/04/27 11:45:30;;;;;;;2.63;1.60;;;12.30;34.80;;;;;;5052921;28;20669;-91
2021/04/27 11:47:57;;;;;;;2.57;1.43;;;12.60;34.60;;;;;;5051663;28;20241;-91
2021/04/27 11:50:31;;;;;;;1.20;1.10;;;12.70;33.70;;;;;;5051748;28;20172;-90
2021/04/27 11:53:03;;;;;;;1.30;1.20;;;12.40;30.80;;;;;;5051851;28;20655;-91
2021/04/27 11:55:37;;;;;;;7.07;1.90;;;12.50;35.30;;;;;;5053060;28;20214;-90
2021/04/27 11:58:06;;;;;;;3.33;1.50;;;12.20;31.90;;;;;;5051721;28;20222;-89
2021/04/27 12:00:44;;;;;;;2.53;1.40;;;12.60;33.40;;;;;;5051681;28;20200;-90
2021/04/27 12:03:25;;;;;;;2.37;1.30;;;12.70;32.10;;;;;;5051625;28;20175;-90
2021/04/27 12:05:55;;;;;;;3.83;1.20;;;12.70;31.00;;;;;;5150200;22;20230;-86
2021/04/27 12:08:23;;;;;;;2.60;1.27;;;12.70;33.30;;;;;;5051205;28;20523;-88
2021/04/27 12:11:11;;;;;;;4.27;1.50;;;12.80;30.20;;;;;;5051076;28;20179;-86
2021/04/27 12:13:48;;;;;;;5.60;1.43;;;13.10;31.30;;;;;;5052450;28;20161;-87
2021/04/27 12:16:16;;;;;;;1.70;1.17;;;13.40;29.90;;;;;;5052354;28;20203;-86
2021/04/27 12:18:56;;;;;;;1.00;1.00;;;13.30;28.80;;;;;;5051049;28;20173;-86
2021/04/27 12:21:37;;;;;;;1.57;1.30;;;13.20;30.30;;;;;;5054463;28;20211;-86
2021/04/27 12:24:16;;;;;;;2.93;1.30;;;13.30;30.50;;;;;;5054594;28;20195;-87
2021/04/27 12:26:59;;;;;;;2.50;1.30;;;13.40;29.40;;;;;;5056024;28;20275;-86
2021/04/27 12:29:29;;;;;;;1.83;1.20;;;13.40;30.30;;;;;;5055094;28;20218;-86
2021/04/27 12:31:56;;;;;;;1.53;1.20;;;13.50;28.70;;;;;;5054686;28;20645;-87
2021/04/27 12:34:22;;;;;;;1.60;1.33;;;13.20;28.50;;;;;;5054427;28;20183;-86
2021/04/27 12:36:51;;;;;;;3.77;1.90;;;13.20;31.40;;;;;;5055504;28;20192;-86
2021/04/27 12:39:22;;;;;;;2.10;1.20;;;13.10;31.30;;;;;;5054555;28;20179;-88
2021/04/27 12:41:54;;;;;;;1.17;1.07;;;13.00;30.30;;;;;;5054116;28;20227;-88
2021/04/27 12:44:40;;;;;;;2.10;1.23;;;12.90;32.10;;;;;;5055707;28;20282;-88
2021/04/27 12:47:18;;;;;;;2.47;1.30;;;12.80;31.60;;;;;;5054133;28;20200;-87
2021/04/27 12:49:55;;;;;;;6.60;1.37;;;12.90;30.10;;;;;;5054085;28;20713;-86
2021/04/27 12:52:20;;;;;;;3.90;1.10;;;13.20;31.70;;;;;;5054109;28;20171;-87
2021/04/27 12:54:58;;;;;;;2.13;1.27;;;13.70;30.50;;;;;;5053950;28;20172;-86
2021/04/27 12:57:25;;;;;;;1.47;1.10;;;13.90;28.60;;;;;;5053929;28;20168;-86
2021/04/27 13:00:09;;;;;;;2.23;1.37;;;13.80;29.50;;;;;;5053760;28;20183;-87
2021/04/27 13:02:35;;;;;;;2.97;1.30;;;13.80;27.90;;;;;;5053865;28;20183;-86